Time;durP1;ratioP1;P1;durP2;ratioP2;P2;SDS_P1;SDS_P2;PMS_P1;PMS_P2;Temp;Humidity;BMP_temperature;BMP_pressure;BME280_temperature;BME280_humidity;BME280_pressure;Samples;Min_cycle;Max_cycle;Signal;HPM_P1;HPM_P2
2023/04/01 00:01:41;;;;;;;25.15;5.90;;;12.00;99.90;;;;;;5031700;28;20037;-75
2023/04/01 00:04:07;;;;;;;20.65;5.40;;;11.90;99.90;;;;;;5032752;28;20041;-75
2023/04/01 00:06:33;;;;;;;20.63;5.32;;;11.90;99.90;;;;;;5031973;28;20029;-76
2023/04/01 00:08:59;;;;;;;20.10;5.35;;;11.90;99.90;;;;;;5031255;28;20025;-75
2023/04/01 00:11:27;;;;;;;21.02;6.07;;;11.90;99.90;;;;;;5032208;28;20032;-76
2023/04/01 00:13:53;;;;;;;21.95;5.07;;;11.90;99.90;;;;;;5032275;28;20033;-76
2023/04/01 00:16:19;;;;;;;23.38;6.15;;;11.90;99.90;;;;;;5031838;28;20033;-74
2023/04/01 00:18:47;;;;;;;17.05;5.22;;;11.80;99.90;;;;;;5031137;28;20033;-76
2023/04/01 00:21:13;;;;;;;26.40;5.70;;;11.80;99.90;;;;;;5030544;28;20056;-75
2023/04/01 00:23:39;;;;;;;22.40;6.13;;;11.80;99.90;;;;;;5030911;28;20480;-75
2023/04/01 00:26:05;;;;;;;25.95;5.35;;;11.90;99.90;;;;;;5018151;28;20042;-75
2023/04/01 00:28:31;;;;;;;24.60;5.60;;;11.80;99.90;;;;;;5012336;28;20469;-75
2023/04/01 00:30:57;;;;;;;18.60;4.72;;;11.90;99.90;;;;;;5010333;28;20101;-75
2023/04/01 00:33:24;;;;;;;21.35;5.28;;;11.90;99.90;;;;;;5023739;28;20048;-75
2023/04/01 00:35:50;;;;;;;24.70;5.05;;;11.90;99.90;;;;;;5031455;28;20041;-75
2023/04/01 00:38:16;;;;;;;16.10;4.75;;;11.90;99.90;;;;;;5030743;28;20503;-76
2023/04/01 00:40:44;;;;;;;15.77;4.75;;;11.90;99.90;;;;;;5031700;28;20034;-76
2023/04/01 00:43:15;;;;;;;7.32;3.50;;;11.80;99.90;;;;;;5031597;28;20030;-76
2023/04/01 00:45:42;;;;;;;16.52;4.45;;;11.80;99.90;;;;;;5029962;28;20026;-75
2023/04/01 00:48:13;;;;;;;11.15;3.80;;;11.70;99.90;;;;;;5030671;28;20025;-76
2023/04/01 00:50:40;;;;;;;10.60;3.80;;;11.70;99.90;;;;;;5020627;28;20022;-75
2023/04/01 00:53:06;;;;;;;12.50;3.65;;;11.70;99.90;;;;;;5010626;28;20034;-75
2023/04/01 00:55:34;;;;;;;12.73;3.83;;;11.70;99.90;;;;;;4994485;28;20037;-76
2023/04/01 00:58:00;;;;;;;9.63;3.97;;;11.70;99.90;;;;;;5010404;28;20042;-75
2023/04/01 01:00:26;;;;;;;8.48;3.92;;;11.70;99.90;;;;;;5009947;28;20034;-75
2023/04/01 01:02:52;;;;;;;12.77;3.67;;;11.70;99.90;;;;;;5011711;28;20472;-75
2023/04/01 01:05:20;;;;;;;9.43;3.92;;;11.70;99.90;;;;;;5011177;28;20105;-75
2023/04/01 01:08:04;;;;;;;12.70;3.67;;;11.70;99.90;;;;;;4993534;28;20042;-75
2023/04/01 01:10:34;;;;;;;11.38;4.00;;;11.70;99.90;;;;;;5010330;28;20030;-76
2023/04/01 01:13:21;;;;;;;9.00;3.38;;;11.70;99.90;;;;;;5009644;28;20488;-74
2023/04/01 01:15:50;;;;;;;12.57;3.83;;;11.60;99.90;;;;;;5009620;28;20026;-75
2023/04/01 01:18:32;;;;;;;14.75;4.10;;;11.60;99.90;;;;;;5009984;28;20369;-71
2023/04/01 01:21:20;;;;;;;9.93;4.60;;;11.50;99.90;;;;;;5011430;28;20463;-75
2023/04/01 01:24:08;;;;;;;13.27;3.92;;;11.50;99.90;;;;;;5011233;28;20038;-75
2023/04/01 01:26:37;;;;;;;12.07;4.28;;;11.40;99.90;;;;;;5025278;28;20037;-75
2023/04/01 01:29:31;;;;;;;11.20;3.83;;;11.50;99.90;;;;;;5030800;28;20041;-76
2023/04/01 01:32:34;;;;;;;11.43;3.65;;;11.40;99.90;;;;;;5029095;28;20097;-75
2023/04/01 01:35:29;;;;;;;15.43;4.05;;;11.50;99.90;;;;;;5010722;28;20030;-76
2023/04/01 01:37:58;;;;;;;10.45;4.10;;;11.50;99.90;;;;;;5026149;28;20448;-75
2023/04/01 01:40:25;;;;;;;14.10;4.18;;;11.50;99.90;;;;;;5009767;28;20018;-75
2023/04/01 01:42:54;;;;;;;13.88;5.07;;;11.50;99.90;;;;;;5026961;28;20033;-75
2023/04/01 01:45:21;;;;;;;12.63;5.07;;;11.40;99.90;;;;;;5012821;28;20033;-75
2023/04/01 01:47:48;;;;;;;11.50;4.78;;;11.50;99.90;;;;;;5012873;28;20029;-75
2023/04/01 01:50:14;;;;;;;18.65;5.03;;;11.50;99.90;;;;;;5006296;28;20025;-75
2023/04/01 01:52:40;;;;;;;14.73;5.00;;;11.40;99.90;;;;;;4993114;28;20049;-75
2023/04/01 01:55:26;;;;;;;18.35;5.53;;;11.50;99.90;;;;;;5025625;28;20484;-75
2023/04/01 01:57:52;;;;;;;17.92;5.47;;;11.50;99.90;;;;;;5009647;28;20029;-75
2023/04/01 02:00:18;;;;;;;18.98;5.35;;;11.40;99.90;;;;;;5009513;28;20033;-75
2023/04/01 02:02:45;;;;;;;19.23;5.55;;;11.40;99.90;;;;;;4992756;28;20056;-75
2023/04/01 02:05:15;;;;;;;23.50;6.20;;;11.40;99.90;;;;;;5009737;28;20484;-75
2023/04/01 02:07:41;;;;;;;23.45;5.88;;;11.50;99.90;;;;;;5009558;28;20026;-75
2023/04/01 02:10:08;;;;;;;24.40;5.63;;;11.40;99.90;;;;;;5009591;28;20041;-75
2023/04/01 02:12:34;;;;;;;22.05;5.60;;;11.30;99.90;;;;;;4993115;28;20026;-75
2023/04/01 02:15:06;;;;;;;19.48;6.13;;;11.30;99.90;;;;;;4992899;28;20447;-75
2023/04/01 02:17:32;;;;;;;17.13;5.70;;;11.30;99.90;;;;;;5028097;28;20034;-75
2023/04/01 02:20:01;;;;;;;24.25;6.22;;;11.30;99.90;;;;;;5029195;28;20037;-75
2023/04/01 02:22:36;;;;;;;22.58;5.80;;;11.40;99.90;;;;;;5029259;28;20021;-75
2023/04/01 02:25:10;;;;;;;27.17;5.95;;;11.40;99.90;;;;;;5029164;28;20029;-75
2023/04/01 02:27:36;;;;;;;22.60;5.95;;;11.40;99.90;;;;;;5047100;28;20029;-75
2023/04/01 02:30:03;;;;;;;21.98;6.50;;;11.40;99.90;;;;;;5048968;28;20033;-75
2023/04/01 02:32:29;;;;;;;25.00;6.00;;;11.40;99.90;;;;;;5042140;28;20029;-75
2023/04/01 02:34:55;;;;;;;24.02;5.97;;;11.40;99.90;;;;;;5030432;28;20025;-76
2023/04/01 02:37:22;;;;;;;13.77;5.15;;;11.30;99.90;;;;;;5046293;28;20471;-75
2023/04/01 02:39:48;;;;;;;21.48;6.03;;;11.30;99.90;;;;;;5050342;28;20029;-74
2023/04/01 02:42:14;;;;;;;27.65;6.20;;;11.40;99.90;;;;;;5051438;28;20455;-75
2023/04/01 02:44:40;;;;;;;25.63;6.70;;;11.40;99.90;;;;;;5050304;28;20036;-75
2023/04/01 02:47:06;;;;;;;26.58;6.18;;;11.50;99.90;;;;;;5050727;28;20402;-74
2023/04/01 02:49:32;;;;;;;23.45;6.15;;;11.50;99.90;;;;;;5051349;28;20032;-75
2023/04/01 02:51:58;;;;;;;26.48;6.15;;;11.40;99.90;;;;;;5034884;28;20046;-74
2023/04/01 02:54:24;;;;;;;25.02;6.32;;;11.40;99.90;;;;;;5033982;28;20056;-74
2023/04/01 02:56:50;;;;;;;30.48;6.07;;;11.50;99.90;;;;;;5035117;28;20026;-75
2023/04/01 02:59:17;;;;;;;18.80;5.65;;;11.40;99.90;;;;;;5035153;28;20044;-75
2023/04/01 03:01:43;;;;;;;19.90;5.43;;;11.40;99.90;;;;;;5034182;28;20037;-75
2023/04/01 03:04:09;;;;;;;21.27;5.93;;;11.40;99.90;;;;;;5034823;28;20041;-75
2023/04/01 03:06:35;;;;;;;24.52;6.03;;;11.30;99.90;;;;;;5034898;28;20040;-74
2023/04/01 03:09:03;;;;;;;22.48;6.28;;;11.30;99.90;;;;;;5017318;28;20037;-74
2023/04/01 03:11:29;;;;;;;27.30;6.45;;;11.30;99.90;;;;;;5017451;28;20030;-75
2023/04/01 03:13:55;;;;;;;20.25;6.15;;;11.20;99.90;;;;;;5033534;28;20033;-75
2023/04/01 03:16:22;;;;;;;30.40;6.10;;;11.20;99.90;;;;;;5032736;28;20030;-74
2023/04/01 03:18:50;;;;;;;30.83;6.15;;;11.10;99.90;;;;;;5033678;28;20247;-75
2023/04/01 03:21:18;;;;;;;27.17;6.38;;;11.10;99.90;;;;;;5017201;28;20026;-75
2023/04/01 03:23:44;;;;;;;22.67;6.40;;;11.20;99.90;;;;;;5033405;28;20534;-74
2023/04/01 03:26:10;;;;;;;23.60;5.85;;;11.20;99.90;;;;;;5039451;28;20025;-75
2023/04/01 03:28:36;;;;;;;29.00;6.72;;;11.20;99.90;;;;;;5053262;28;20036;-75
2023/04/01 03:31:02;;;;;;;25.88;6.00;;;11.20;99.90;;;;;;5053523;28;20483;-74
2023/04/01 03:33:29;;;;;;;29.75;6.28;;;11.20;99.90;;;;;;5054402;28;20482;-75
2023/04/01 03:35:55;;;;;;;25.63;7.00;;;11.20;99.90;;;;;;5054261;28;20036;-74
2023/04/01 03:38:21;;;;;;;30.38;6.40;;;11.30;99.90;;;;;;5054179;28;20029;-74
2023/04/01 03:40:47;;;;;;;27.60;6.65;;;11.40;99.90;;;;;;5054352;28;20466;-75
2023/04/01 03:43:13;;;;;;;22.70;6.20;;;11.40;99.90;;;;;;5053961;28;20033;-75
2023/04/01 03:45:46;;;;;;;27.90;6.47;;;11.40;99.90;;;;;;5052132;28;20048;-74
2023/04/01 03:48:14;;;;;;;37.83;6.50;;;11.30;99.90;;;;;;5069571;28;20379;-75
2023/04/01 03:50:40;;;;;;;27.73;6.43;;;11.40;99.90;;;;;;5042009;28;20472;-75
2023/04/01 03:53:06;;;;;;;26.13;6.80;;;11.40;99.90;;;;;;5032835;28;20034;-75
2023/04/01 03:55:32;;;;;;;30.45;6.40;;;11.40;99.90;;;;;;5016519;28;20025;-75
2023/04/01 03:57:59;;;;;;;28.48;6.18;;;11.40;99.90;;;;;;5032436;28;20082;-75
2023/04/01 04:00:25;;;;;;;25.48;6.35;;;11.40;99.90;;;;;;5032284;28;20052;-74
2023/04/01 04:02:51;;;;;;;24.35;6.90;;;11.40;99.90;;;;;;5033920;28;20030;-75
2023/04/01 04:05:17;;;;;;;29.13;6.95;;;11.50;99.90;;;;;;5033707;28;20108;-74
2023/04/01 04:07:43;;;;;;;25.33;6.82;;;11.50;99.90;;;;;;5032568;28;20045;-74
2023/04/01 04:10:10;;;;;;;28.52;7.18;;;11.60;99.90;;;;;;5033816;28;20044;-77
2023/04/01 04:12:36;;;;;;;27.10;7.43;;;11.50;99.90;;;;;;5033209;28;20036;-74
2023/04/01 04:15:02;;;;;;;23.45;6.20;;;11.50;99.90;;;;;;5032471;28;20052;-74
2023/04/01 04:17:28;;;;;;;25.90;6.97;;;11.60;99.90;;;;;;5031582;28;20099;-75
2023/04/01 04:19:54;;;;;;;23.75;5.78;;;11.60;99.90;;;;;;5032347;28;20030;-74
2023/04/01 04:22:20;;;;;;;25.23;5.88;;;11.50;99.90;;;;;;5033475;28;20032;-74
2023/04/01 04:24:46;;;;;;;22.17;5.65;;;11.50;99.90;;;;;;5032176;28;20046;-75
2023/04/01 04:27:12;;;;;;;22.30;5.78;;;11.40;99.90;;;;;;5047590;28;20029;-74
2023/04/01 04:29:38;;;;;;;23.95;5.63;;;11.40;99.90;;;;;;5052167;28;20052;-75
2023/04/01 04:32:05;;;;;;;22.70;5.65;;;11.40;99.90;;;;;;5051521;28;20044;-75
2023/04/01 04:34:31;;;;;;;22.92;5.00;;;11.40;99.90;;;;;;5051990;28;20032;-74
2023/04/01 04:36:57;;;;;;;19.70;5.22;;;11.40;99.90;;;;;;5051907;28;20028;-75
2023/04/01 04:39:23;;;;;;;23.65;5.70;;;11.30;99.90;;;;;;5051972;28;20036;-75
2023/04/01 04:41:49;;;;;;;22.17;5.32;;;11.20;99.90;;;;;;5052659;28;20033;-75
2023/04/01 04:44:15;;;;;;;28.75;5.53;;;11.20;99.90;;;;;;5041998;28;20072;-75
2023/04/01 04:46:41;;;;;;;17.40;5.05;;;11.20;99.90;;;;;;5052520;28;20029;-74
2023/04/01 04:49:07;;;;;;;28.95;6.50;;;11.20;99.90;;;;;;5018699;28;20040;-75
2023/04/01 04:51:35;;;;;;;26.90;6.03;;;11.20;99.90;;;;;;5034426;28;20041;-75
2023/04/01 04:54:05;;;;;;;23.92;5.43;;;11.20;99.90;;;;;;5051574;28;20029;-74
2023/04/01 04:56:31;;;;;;;20.60;5.45;;;11.20;99.90;;;;;;5034956;28;20041;-74
2023/04/01 04:58:58;;;;;;;20.67;5.63;;;11.20;99.90;;;;;;5051628;28;20477;-75
2023/04/01 05:01:24;;;;;;;18.23;5.68;;;11.10;99.90;;;;;;5050962;28;20033;-74
2023/04/01 05:03:51;;;;;;;21.48;5.53;;;11.10;99.90;;;;;;5052647;28;20501;-75
2023/04/01 05:06:17;;;;;;;21.67;6.30;;;11.10;99.90;;;;;;5051504;28;20033;-74
2023/04/01 05:08:43;;;;;;;21.63;5.18;;;11.10;99.90;;;;;;5052540;28;20040;-75
2023/04/01 05:11:14;;;;;;;23.48;6.35;;;11.10;99.90;;;;;;5051754;28;20356;-75
2023/04/01 05:13:41;;;;;;;22.23;5.13;;;11.10;99.90;;;;;;5051258;28;20379;-74
2023/04/01 05:16:11;;;;;;;21.02;5.53;;;11.10;99.90;;;;;;5050822;28;20029;-75
2023/04/01 05:18:37;;;;;;;17.35;5.35;;;11.20;99.90;;;;;;5052450;28;20040;-74
2023/04/01 05:21:04;;;;;;;25.80;5.60;;;11.20;99.90;;;;;;5052682;28;20378;-74
2023/04/01 05:23:31;;;;;;;19.30;5.38;;;11.20;99.90;;;;;;5051109;28;20029;-75
2023/04/01 05:25:57;;;;;;;22.30;5.10;;;11.20;99.90;;;;;;5050748;28;20475;-75
2023/04/01 05:28:23;;;;;;;22.10;5.50;;;11.20;99.90;;;;;;5051033;28;20025;-74
2023/04/01 05:30:49;;;;;;;21.17;5.10;;;11.20;99.90;;;;;;5050704;28;20029;-75
2023/04/01 05:33:15;;;;;;;25.65;5.95;;;11.20;99.90;;;;;;5051020;28;20030;-75
2023/04/01 05:35:41;;;;;;;22.42;5.82;;;11.20;99.90;;;;;;5052224;28;20028;-74
2023/04/01 05:38:08;;;;;;;25.63;5.57;;;11.20;99.90;;;;;;5052030;28;20029;-75
2023/04/01 05:40:34;;;;;;;27.40;5.65;;;11.20;99.90;;;;;;5050706;28;20495;-74
2023/04/01 05:43:00;;;;;;;25.33;5.82;;;11.10;99.90;;;;;;5048661;28;20032;-75
2023/04/01 05:45:26;;;;;;;22.95;5.15;;;11.10;99.90;;;;;;5030630;28;20419;-75
2023/04/01 05:47:53;;;;;;;17.98;5.70;;;11.10;99.90;;;;;;5032138;28;20029;-75
2023/04/01 05:50:19;;;;;;;20.52;5.70;;;11.10;99.90;;;;;;5038627;28;20501;-73
2023/04/01 05:52:45;;;;;;;29.17;6.13;;;11.10;99.90;;;;;;5050495;28;20515;-75
2023/04/01 05:55:11;;;;;;;20.00;5.50;;;11.20;99.90;;;;;;5050512;28;20352;-75
2023/04/01 05:57:38;;;;;;;22.27;5.70;;;11.20;99.90;;;;;;5051881;28;20036;-75
2023/04/01 06:00:04;;;;;;;21.98;5.63;;;11.30;99.90;;;;;;5051720;28;20471;-75
2023/04/01 06:02:30;;;;;;;19.23;5.63;;;11.20;99.90;;;;;;5050539;28;20041;-75
2023/04/01 06:05:17;;;;;;;21.27;5.47;;;11.20;99.90;;;;;;5052002;28;20502;-78
2023/04/01 06:07:43;;;;;;;17.83;4.97;;;11.10;99.90;;;;;;5051862;28;20048;-74
2023/04/01 06:10:19;;;;;;;23.27;6.07;;;11.10;99.90;;;;;;5051478;28;20032;-75
2023/04/01 06:13:00;;;;;;;15.07;5.45;;;11.10;99.90;;;;;;5050692;28;20029;-74
2023/04/01 06:15:59;;;;;;;19.88;5.13;;;11.10;99.90;;;;;;5050332;28;20033;-75
2023/04/01 06:18:37;;;;;;;22.17;5.32;;;11.10;99.90;;;;;;5009626;28;20034;-75
2023/04/01 06:21:41;;;;;;;25.95;5.25;;;11.20;99.90;;;;;;4993974;28;20420;-75
2023/04/01 06:24:23;;;;;;;21.33;5.50;;;11.20;99.90;;;;;;4939459;29;20043;-75
2023/04/01 06:27:05;;;;;;;14.90;5.60;;;11.10;99.90;;;;;;4951063;28;20081;-74
2023/04/01 06:29:43;;;;;;;19.33;5.35;;;11.10;99.90;;;;;;4974560;28;20042;-75
2023/04/01 06:32:43;;;;;;;25.55;6.03;;;11.30;99.90;;;;;;4958079;28;20039;-75
2023/04/01 06:35:40;;;;;;;21.52;5.95;;;11.40;99.90;;;;;;4944005;28;20038;-75
2023/04/01 06:38:29;;;;;;;22.73;5.93;;;11.60;99.90;;;;;;4974318;28;20035;-75
2023/04/01 06:41:05;;;;;;;24.52;6.78;;;11.70;99.90;;;;;;4959571;28;20140;-75
2023/04/01 06:43:46;;;;;;;25.20;9.18;;;11.90;99.90;;;;;;4935796;29;20031;-75
2023/04/01 06:46:50;;;;;;;25.38;11.45;;;12.10;99.90;;;;;;4954699;28;20152;-75
2023/04/01 06:49:34;;;;;;;25.55;11.70;;;12.30;99.90;;;;;;4950882;28;20381;-75
2023/04/01 06:52:13;;;;;;;14.70;5.70;;;12.50;99.90;;;;;;4935214;29;20063;-75
2023/04/01 06:54:51;;;;;;;24.95;8.07;;;12.70;99.90;;;;;;4943490;28;20043;-75
2023/04/01 06:57:26;;;;;;;20.15;6.63;;;12.80;99.90;;;;;;4946540;28;20134;-76
2023/04/01 06:59:52;;;;;;;24.17;7.65;;;12.90;99.90;;;;;;4977375;28;20030;-76
2023/04/01 07:02:36;;;;;;;22.10;9.02;;;13.00;99.90;;;;;;5011102;28;20076;-76
2023/04/01 07:05:02;;;;;;;20.13;8.10;;;13.10;99.90;;;;;;5050273;28;20056;-76
2023/04/01 07:07:41;;;;;;;21.20;7.68;;;13.20;99.90;;;;;;5033188;28;20045;-76
2023/04/01 07:10:38;;;;;;;18.15;6.15;;;13.30;99.90;;;;;;5032661;28;20037;-76
2023/04/01 07:13:06;;;;;;;23.05;6.75;;;13.50;99.90;;;;;;5046931;28;20048;-76
2023/04/01 07:15:37;;;;;;;17.38;6.32;;;13.70;99.90;;;;;;5049606;28;20037;-76
2023/04/01 07:18:07;;;;;;;20.17;6.82;;;13.70;99.90;;;;;;5049923;28;20033;-76
2023/04/01 07:20:33;;;;;;;21.67;7.72;;;13.60;99.90;;;;;;5049706;28;20029;-76
2023/04/01 07:23:04;;;;;;;15.23;6.65;;;13.60;99.90;;;;;;5033034;28;20041;-76
2023/04/01 07:25:47;;;;;;;17.17;5.53;;;13.70;99.90;;;;;;5049769;28;20037;-76
2023/04/01 07:28:16;;;;;;;15.63;5.15;;;13.90;99.90;;;;;;5053313;28;20471;-75
2023/04/01 07:31:16;;;;;;;15.43;5.55;;;13.90;99.90;;;;;;5052704;28;20033;-75
2023/04/01 07:33:53;;;;;;;24.58;6.30;;;14.00;99.90;;;;;;5053285;28;20040;-75
2023/04/01 07:36:42;;;;;;;17.75;5.07;;;14.10;99.90;;;;;;5052813;28;20021;-76
2023/04/01 07:39:16;;;;;;;16.77;5.50;;;14.20;99.90;;;;;;5054292;28;20029;-76
2023/04/01 07:41:58;;;;;;;14.13;6.07;;;14.30;99.90;;;;;;5054094;28;20048;-75
2023/04/01 07:44:30;;;;;;;13.38;6.25;;;14.30;99.90;;;;;;5053027;28;20029;-76
2023/04/01 07:47:03;;;;;;;25.20;6.25;;;14.30;99.90;;;;;;5053751;28;20040;-76
2023/04/01 07:49:43;;;;;;;22.27;6.53;;;14.30;99.90;;;;;;5052049;28;20036;-76
2023/04/01 07:52:16;;;;;;;23.60;6.15;;;14.40;99.90;;;;;;5032462;28;20045;-76
2023/04/01 07:55:24;;;;;;;22.00;5.97;;;14.40;99.90;;;;;;5032919;28;20486;-76
2023/04/01 07:58:05;;;;;;;19.48;5.95;;;14.50;99.90;;;;;;4995743;28;20045;-76
2023/04/01 08:00:43;;;;;;;17.10;6.50;;;14.60;99.90;;;;;;5011496;28;20029;-75
2023/04/01 08:03:28;;;;;;;20.00;6.63;;;14.60;99.90;;;;;;5012051;28;20046;-76
2023/04/01 08:06:00;;;;;;;17.88;6.43;;;14.50;99.90;;;;;;5011408;28;20037;-76
2023/04/01 08:08:29;;;;;;;21.60;6.95;;;14.50;99.90;;;;;;4994931;28;20040;-76
2023/04/01 08:11:13;;;;;;;20.77;5.85;;;14.60;99.90;;;;;;5011769;28;20080;-76
2023/04/01 08:13:48;;;;;;;16.98;5.82;;;14.80;99.90;;;;;;4995531;28;20022;-76
2023/04/01 08:16:31;;;;;;;17.88;5.43;;;14.90;99.90;;;;;;5011050;28;20026;-76
2023/04/01 08:19:15;;;;;;;26.05;6.55;;;14.80;99.90;;;;;;4994954;28;20034;-76
2023/04/01 08:21:54;;;;;;;18.10;6.53;;;14.80;99.90;;;;;;4995397;28;20037;-76
2023/04/01 08:24:27;;;;;;;16.80;5.53;;;14.70;99.90;;;;;;4994774;28;20049;-75
2023/04/01 08:26:55;;;;;;;21.60;6.35;;;14.60;99.90;;;;;;5003497;28;20045;-75
2023/04/01 08:29:44;;;;;;;14.70;6.28;;;14.30;99.90;;;;;;4995120;28;20348;-76
2023/04/01 08:32:17;;;;;;;23.50;6.28;;;14.20;99.90;;;;;;5010965;28;20046;-76
2023/04/01 08:34:45;;;;;;;14.07;6.00;;;14.40;99.90;;;;;;5007415;28;20391;-76
2023/04/01 08:37:19;;;;;;;15.32;5.57;;;14.40;99.90;;;;;;5015921;28;20040;-76
2023/04/01 08:39:55;;;;;;;21.73;6.15;;;14.50;99.90;;;;;;5016671;28;20387;-76
2023/04/01 08:42:31;;;;;;;19.38;5.32;;;14.70;99.90;;;;;;5016100;28;20025;-76
2023/04/01 08:45:05;;;;;;;21.20;6.35;;;14.80;99.90;;;;;;5051161;28;20383;-76
2023/04/01 08:47:38;;;;;;;17.75;5.45;;;14.80;99.90;;;;;;5050547;28;20033;-76
2023/04/01 08:50:35;;;;;;;12.65;5.40;;;14.70;99.90;;;;;;5046780;28;20026;-77
2023/04/01 08:53:16;;;;;;;13.93;5.18;;;14.80;99.90;;;;;;5033252;28;20049;-75
2023/04/01 08:55:42;;;;;;;14.82;4.88;;;15.00;99.90;;;;;;5031751;28;20026;-75
2023/04/01 08:58:26;;;;;;;14.65;4.72;;;15.00;99.90;;;;;;5031452;28;20302;-76
2023/04/01 09:00:57;;;;;;;8.43;4.28;;;14.90;99.90;;;;;;5032247;28;20025;-76
2023/04/01 09:03:41;;;;;;;11.43;4.30;;;15.00;99.90;;;;;;5015383;28;20507;-75
2023/04/01 09:06:16;;;;;;;14.48;4.57;;;15.20;99.90;;;;;;5032656;28;20049;-76
2023/04/01 09:09:04;;;;;;;13.18;4.85;;;15.40;99.90;;;;;;5032766;28;20022;-77
2023/04/01 09:11:54;;;;;;;11.85;4.85;;;15.70;99.90;;;;;;5031710;28;20037;-77
2023/04/01 09:15:07;;;;;;;11.27;4.55;;;16.00;99.90;;;;;;5032722;28;20033;-76
2023/04/01 09:17:44;;;;;;;15.48;5.18;;;16.10;99.90;;;;;;4992830;28;20030;-76
2023/04/01 09:20:26;;;;;;;12.85;4.65;;;16.20;99.90;;;;;;4994328;28;20037;-76
2023/04/01 09:23:30;;;;;;;9.90;3.88;;;16.30;99.90;;;;;;4994244;28;20041;-76
2023/04/01 09:26:30;;;;;;;11.38;4.82;;;16.10;99.90;;;;;;5014283;28;20037;-76
2023/04/01 09:29:11;;;;;;;8.90;4.05;;;16.10;99.90;;;;;;5030233;28;20037;-76
2023/04/01 09:31:59;;;;;;;11.18;4.25;;;16.30;99.90;;;;;;4997033;28;20052;-76
2023/04/01 09:34:29;;;;;;;9.85;4.10;;;16.30;99.90;;;;;;5030025;28;20030;-76
2023/04/01 09:37:14;;;;;;;9.87;3.53;;;16.30;99.90;;;;;;5014199;28;20040;-76
2023/04/01 09:40:11;;;;;;;8.43;4.15;;;16.00;99.90;;;;;;5030108;28;20036;-75
2023/04/01 09:42:55;;;;;;;8.38;4.28;;;16.00;99.90;;;;;;5014773;28;20041;-75
2023/04/01 09:45:57;;;;;;;10.82;4.47;;;16.00;99.90;;;;;;5029352;28;20046;-76
2023/04/01 09:48:50;;;;;;;10.30;4.32;;;16.10;99.90;;;;;;4932564;29;20036;-76
2023/04/01 09:51:58;;;;;;;11.18;4.20;;;16.20;99.90;;;;;;4931352;29;20050;-76
2023/04/01 09:54:41;;;;;;;8.23;4.30;;;16.20;99.90;;;;;;4933898;29;20445;-75
2023/04/01 09:57:13;;;;;;;9.38;3.88;;;16.40;99.90;;;;;;4936174;28;20035;-75
2023/04/01 09:59:57;;;;;;;12.02;4.70;;;16.50;99.90;;;;;;4940143;29;20054;-76
2023/04/01 10:02:59;;;;;;;8.25;4.38;;;16.40;99.90;;;;;;4973756;28;20066;-75
2023/04/01 10:05:40;;;;;;;7.30;4.53;;;16.40;99.90;;;;;;4958586;28;20054;-76
2023/04/01 10:08:51;;;;;;;8.52;4.40;;;16.40;99.90;;;;;;4975047;28;20035;-76
2023/04/01 10:11:23;;;;;;;8.57;4.35;;;16.20;99.90;;;;;;4917380;29;20044;-76
2023/04/01 10:14:07;;;;;;;8.65;4.85;;;16.20;99.90;;;;;;4917245;29;20277;-76
2023/04/01 10:16:39;;;;;;;7.47;4.28;;;16.20;99.90;;;;;;4916618;29;20040;-76
2023/04/01 10:19:22;;;;;;;6.50;4.53;;;16.20;99.90;;;;;;4917274;29;20040;-75
2023/04/01 10:22:26;;;;;;;8.05;4.57;;;16.10;99.90;;;;;;4917205;29;20032;-76
2023/04/01 10:24:52;;;;;;;8.30;4.05;;;15.90;99.90;;;;;;4949782;28;20038;-76
2023/04/01 10:27:28;;;;;;;10.13;4.90;;;15.90;99.90;;;;;;4979080;28;20034;-75
2023/04/01 10:30:01;;;;;;;8.65;4.03;;;15.80;99.90;;;;;;4927157;28;20046;-76
2023/04/01 10:33:01;;;;;;;10.10;4.32;;;15.70;99.90;;;;;;4957955;28;20113;-75
2023/04/01 10:35:56;;;;;;;12.80;4.00;;;15.60;99.90;;;;;;4960520;28;20030;-76
2023/04/01 10:38:37;;;;;;;9.13;4.20;;;15.50;99.90;;;;;;4973220;28;20035;-75
2023/04/01 10:41:22;;;;;;;9.00;3.83;;;15.40;99.90;;;;;;4958782;28;20544;-76
2023/04/01 10:43:53;;;;;;;7.47;3.88;;;15.30;99.90;;;;;;4973908;28;20026;-76
2023/04/01 10:46:39;;;;;;;10.90;3.88;;;15.20;99.90;;;;;;5024313;28;20065;-76
2023/04/01 10:49:29;;;;;;;7.15;4.18;;;15.20;99.90;;;;;;5035273;28;20100;-76
2023/04/01 10:52:25;;;;;;;12.90;4.00;;;15.20;99.90;;;;;;5035069;28;20046;-76
2023/04/01 10:55:14;;;;;;;8.20;4.13;;;15.10;99.90;;;;;;5035184;28;20268;-76
2023/04/01 10:58:10;;;;;;;11.93;4.78;;;15.10;99.90;;;;;;5033949;28;20041;-75
2023/04/01 11:00:58;;;;;;;12.90;5.00;;;15.00;99.90;;;;;;5032843;28;20041;-76
2023/04/01 11:03:31;;;;;;;11.82;4.70;;;15.00;99.90;;;;;;5034985;28;20494;-76
2023/04/01 11:06:19;;;;;;;12.52;4.85;;;15.00;99.90;;;;;;5017212;28;20072;-77
2023/04/01 11:09:04;;;;;;;11.45;4.85;;;15.00;99.90;;;;;;5034528;28;20475;-76
2023/04/01 11:12:22;;;;;;;6.82;4.50;;;15.00;99.90;;;;;;5034856;28;20037;-77
2023/04/01 11:14:48;;;;;;;8.27;4.43;;;15.00;99.90;;;;;;4990540;28;20046;-76
2023/04/01 11:17:52;;;;;;;14.43;5.40;;;14.90;99.90;;;;;;4992545;28;20030;-76
2023/04/01 11:20:24;;;;;;;7.95;4.70;;;15.00;99.90;;;;;;4938004;29;20438;-76
2023/04/01 11:23:20;;;;;;;7.03;4.00;;;15.00;99.90;;;;;;4954421;28;20051;-76
2023/04/01 11:26:19;;;;;;;8.07;4.28;;;15.10;99.90;;;;;;4953981;29;20383;-76
2023/04/01 11:29:16;;;;;;;7.93;3.95;;;15.20;99.90;;;;;;4953981;29;20035;-76
2023/04/01 11:31:46;;;;;;;6.68;3.90;;;15.40;99.90;;;;;;4953579;29;20418;-75
2023/04/01 11:34:27;;;;;;;9.05;4.15;;;15.60;99.90;;;;;;4922739;29;20036;-75
2023/04/01 11:37:08;;;;;;;6.95;3.40;;;15.70;99.90;;;;;;4954292;29;20039;-75
2023/04/01 11:39:41;;;;;;;6.57;3.45;;;15.80;99.90;;;;;;4954040;29;20051;-76
2023/04/01 11:42:22;;;;;;;7.55;3.33;;;16.00;99.90;;;;;;4953632;29;20042;-76
2023/04/01 11:45:12;;;;;;;9.18;3.72;;;16.10;99.90;;;;;;4937187;29;20043;-76
2023/04/01 11:48:04;;;;;;;6.28;3.80;;;16.30;99.90;;;;;;4937254;29;20032;-76
2023/04/01 11:50:36;;;;;;;6.85;3.95;;;16.70;99.90;;;;;;4953572;29;20050;-76
2023/04/01 11:53:35;;;;;;;7.05;3.85;;;17.00;99.90;;;;;;4991215;28;20150;-76
2023/04/01 11:56:01;;;;;;;7.30;3.30;;;17.10;99.90;;;;;;4934705;28;20066;-76
2023/04/01 11:58:52;;;;;;;7.90;3.40;;;17.00;99.90;;;;;;4992104;28;20046;-75
2023/04/01 12:01:28;;;;;;;9.98;2.95;;;16.80;99.90;;;;;;4975629;28;20042;-75
2023/04/01 12:04:00;;;;;;;7.65;3.63;;;16.20;99.90;;;;;;4992389;28;20046;-76
2023/04/01 12:07:02;;;;;;;8.60;3.90;;;15.60;99.90;;;;;;4976009;28;20042;-74
2023/04/01 12:09:44;;;;;;;13.35;4.22;;;15.10;99.90;;;;;;4978526;28;20488;-75
2023/04/01 12:12:46;;;;;;;11.15;4.03;;;15.00;99.90;;;;;;4975767;28;20027;-75
2023/04/01 12:15:30;;;;;;;6.65;3.40;;;15.10;99.90;;;;;;4991767;28;20469;-75
2023/04/01 12:18:28;;;;;;;10.40;3.90;;;15.00;99.90;;;;;;4992010;28;20030;-75
2023/04/01 12:21:16;;;;;;;9.93;4.10;;;14.90;99.90;;;;;;4977368;28;20493;-75
2023/04/01 12:23:47;;;;;;;7.63;3.60;;;14.60;99.90;;;;;;4978288;28;20480;-74
2023/04/01 12:26:27;;;;;;;6.20;3.25;;;14.60;99.90;;;;;;4991354;28;20050;-75
2023/04/01 12:29:15;;;;;;;6.53;3.70;;;14.60;99.90;;;;;;4991977;28;20037;-75
2023/04/01 12:32:02;;;;;;;6.88;3.13;;;14.50;99.90;;;;;;4991382;28;20034;-74
2023/04/01 12:34:35;;;;;;;5.07;3.13;;;14.50;99.90;;;;;;5052129;28;20033;-75
2023/04/01 12:37:10;;;;;;;4.65;3.08;;;14.50;99.90;;;;;;5052012;28;20391;-74
2023/04/01 12:39:58;;;;;;;7.30;3.92;;;14.50;99.90;;;;;;5052084;28;20029;-75
2023/04/01 12:42:44;;;;;;;6.15;3.10;;;14.60;99.90;;;;;;5053062;28;20021;-75
2023/04/01 12:45:29;;;;;;;6.95;3.38;;;14.50;99.90;;;;;;5030149;28;20029;-74
2023/04/01 12:48:13;;;;;;;9.10;3.28;;;14.50;99.90;;;;;;5013313;28;20033;-75
2023/04/01 12:51:10;;;;;;;5.78;3.58;;;14.40;99.90;;;;;;5022060;28;20030;-75
2023/04/01 12:53:41;;;;;;;7.75;4.35;;;14.30;99.90;;;;;;5033001;28;20033;-76
2023/04/01 12:56:31;;;;;;;8.57;3.63;;;14.20;99.90;;;;;;5014779;28;20044;-76
2023/04/01 12:59:20;;;;;;;7.82;3.90;;;14.00;99.90;;;;;;5031902;28;20379;-76
2023/04/01 13:02:11;;;;;;;5.88;3.80;;;13.90;99.90;;;;;;5021733;28;20033;-76
2023/04/01 13:05:05;;;;;;;13.70;5.68;;;13.80;99.90;;;;;;5017353;28;20028;-76
2023/04/01 13:07:52;;;;;;;6.05;4.40;;;13.90;99.90;;;;;;5032568;28;20037;-76
2023/04/01 13:10:50;;;;;;;9.95;4.68;;;13.80;99.90;;;;;;5032209;28;20021;-76
2023/04/01 13:13:22;;;;;;;16.33;9.55;;;13.80;99.90;;;;;;5032280;28;20041;-75
2023/04/01 13:15:52;;;;;;;11.07;6.00;;;13.60;99.90;;;;;;5032070;28;20369;-75
2023/04/01 13:18:39;;;;;;;14.32;5.45;;;13.50;99.90;;;;;;5031242;28;20028;-76
2023/04/01 13:21:29;;;;;;;8.50;4.80;;;13.50;99.90;;;;;;5032290;28;20025;-75
2023/04/01 13:24:16;;;;;;;11.43;4.78;;;13.70;99.90;;;;;;4951765;29;20063;-76